M I D A S
Marine Information and Data Acquisition System
Tripno 1184 of the Zeeleeuw from 2006-11-28 08:03:03 to 2006-11-28 14:25:56
Back to CruiseResearch ActivitiesStationsMapUnderway DataData graphs

EquipmentUnitsComment
TimeDGPSUTC
LatitudeDGPSDM.mWGS84
LongitudeDGPSDM.mWGS84
HeadingGyrodeg 
SOGDGPSknotsSpeed over ground
COGDGPSdegCourse over ground
DepthEcho soundermeters200 kHz
Missing or incorrect values are displayed as -999
Navigation data collected by the RV Zeeleeuw from 2006-11-28 07:55:09 to 2006-11-28 08:31:48
Time Latitude Longitude Heading SOG COG Depth
2006-11-28 07:56:14 51°13.611 2°56.051 116.1 2.9 294 -999
2006-11-28 07:57:14 51°13.634 2°55.968 120.3 3.7 296 -999
2006-11-28 07:58:14 51°13.668 2°55.875 125.8 4.3 302 -999
2006-11-28 07:59:14 51°13.705 2°55.776 116.2 4.1 296 -999
2006-11-28 08:00:13 51°13.72 2°55.709 90.6 0.6 2 12.9
2006-11-28 08:01:13 51°13.737 2°55.73 30.7 0.8 213 11.1
2006-11-28 08:02:14 51°13.722 2°55.712 16.7 0.7 341 12.4
2006-11-28 08:03:13 51°13.755 2°55.693 341.9 3.6 337 11.3
2006-11-28 08:04:13 51°13.836 2°55.638 341.9 7.2 337 11.3
2006-11-28 08:05:13 51°13.942 2°55.564 342.2 6.3 337 10.9
2006-11-28 08:06:13 51°14.031 2°55.504 340.4 5.6 336 11
2006-11-28 08:07:14 51°14.12 2°55.44 340.9 6.6 336 11.7
2006-11-28 08:08:14 51°14.24 2°55.334 329.9 9.1 324 11.3
2006-11-28 08:09:14 51°14.347 2°55.156 314.4 10 310 10.1
2006-11-28 08:10:13 51°14.445 2°54.909 298.3 11.9 292 11.5
2006-11-28 08:11:13 51°14.479 2°54.591 274.3 12.5 271 11.3
2006-11-28 08:12:14 51°14.412 2°54.267 244 12.9 240 10.4
2006-11-28 08:13:13 51°14.3 2°53.977 240.9 13.2 239 10.2
2006-11-28 08:14:13 51°14.187 2°53.677 241.6 13.2 239 10.2
2006-11-28 08:15:14 51°14.072 2°53.37 241.7 13.2 239 10.6
2006-11-28 08:16:13 51°13.962 2°53.074 242 13.3 239 10.7
2006-11-28 08:17:12 51°13.851 2°52.776 242.1 13.3 239 11
2006-11-28 08:18:13 51°13.737 2°52.468 242.2 13.2 240 11.1
2006-11-28 08:19:14 51°13.624 2°52.16 242.3 13.3 240 11.2
2006-11-28 08:20:13 51°13.515 2°51.861 241.9 13.2 239 11.2
2006-11-28 08:21:13 51°13.404 2°51.556 242.1 13.3 240 11.3
2006-11-28 08:22:13 51°13.294 2°51.25 242.4 13.3 240 11.4
2006-11-28 08:23:13 51°13.184 2°50.945 242.2 13.3 240 11.5
2006-11-28 08:24:13 51°13.074 2°50.638 242.2 13.3 240 11.6
2006-11-28 08:25:13 51°12.964 2°50.33 242.4 13.4 240 11.7
2006-11-28 08:26:13 51°12.854 2°50.022 242.2 13.4 240 11.9
2006-11-28 08:27:13 51°12.744 2°49.714 241.7 13.3 240 11.9
2006-11-28 08:28:13 51°12.635 2°49.407 242.4 13.3 241 12.1
2006-11-28 08:29:14 51°12.525 2°49.093 242.3 13.4 240 12
2006-11-28 08:30:12 51°12.418 2°48.795 242.3 13.4 241 12.1
2006-11-28 08:31:13 51°12.307 2°48.483 242.2 13.3 240 12.1